Allerton, New York
Current Conditions -  °F | °C
As of 7:51 AM on Thursday 27 Nov 2014 (Local Time) from KLGA Reporting Station
Overcast Overcast  
Wind Chill: 31°   Ceiling: 6000
Heat Index: 37°   Visibility: 10mi
Dew Point: 31°   Wind: 8mph
Humidity: 79%   Direction: 340°NNW
Pressure: 29.97"   Gusts: NA
Location:  40.8778°N, 73.8721°W
Report Text: KLGA 271251Z 34007KT 10SM SCT015 OVC060 03/M01 A2997 RMK AO2 SLP150 T00281006
Loading
Personal Weather Stations






























Interactive Weather Map New forecast layout! Learn more

10-Day Weather Forecast

Advertisements
Track Severe Weather on mobile